createdAt,value
2024-01-18T00:03:40.698Z,86.22
2024-01-18T00:08:43.109Z,86.06
2024-01-18T00:13:45.639Z,85.38
2024-01-18T00:18:49.568Z,85.41
2024-01-18T00:23:51.810Z,85.39
2024-01-18T00:28:54.150Z,85.27
2024-01-18T00:33:59.747Z,85.18
2024-01-18T00:39:08.758Z,84.83
2024-01-18T00:44:16.296Z,85.21
2024-01-18T00:49:19.511Z,84.83
2024-01-18T00:54:25.164Z,84.65
2024-01-18T00:59:39.211Z,84.77
2024-01-18T01:04:41.439Z,84.49
2024-01-18T01:09:43.674Z,84.61
2024-01-18T01:31:14.591Z,84.01
2024-01-18T01:36:16.836Z,83.43
2024-01-18T01:41:19.174Z,83.69
2024-01-18T01:46:21.459Z,84.05
2024-01-18T01:51:24.555Z,83.98
2024-01-18T01:56:27.385Z,84.16
2024-01-18T02:01:33.232Z,83.47
2024-01-18T02:06:39.395Z,83.14
2024-01-18T02:11:42.147Z,83.62
2024-01-18T02:16:44.853Z,83.30
2024-01-18T02:21:47.464Z,83.23
2024-01-18T02:26:56.922Z,83.01
2024-01-18T02:31:59.127Z,83.07
2024-01-18T02:37:01.267Z,82.86
2024-01-18T02:42:04.061Z,83.13
2024-01-18T02:47:06.455Z,83.41
2024-01-18T02:52:08.672Z,83.06
2024-01-18T02:57:11.163Z,83.28
2024-01-18T03:02:13.414Z,84.14
2024-01-18T03:07:15.715Z,83.55
2024-01-18T03:12:18.289Z,83.71
2024-01-18T03:17:20.522Z,84.61
2024-01-18T03:22:22.692Z,86.81
2024-01-18T03:27:24.939Z,87.08
2024-01-18T03:32:27.162Z,91.12
2024-01-18T03:37:29.655Z,90.90
2024-01-18T03:42:34.146Z,91.38
2024-01-18T03:47:36.710Z,91.31
2024-01-18T03:52:38.913Z,92.65
2024-01-18T03:57:41.544Z,92.63
2024-01-18T04:02:44.422Z,92.83
2024-01-18T04:07:46.670Z,92.54
2024-01-18T04:12:49.140Z,92.26
2024-01-18T04:17:51.442Z,92.88
2024-01-18T04:22:54.594Z,93.65
2024-01-18T04:27:57.245Z,94.19
2024-01-18T04:32:59.517Z,94.78
2024-01-18T04:38:02.138Z,95.49
2024-01-18T04:43:04.497Z,97.26
2024-01-18T04:48:07.132Z,98.27
2024-01-18T04:53:10.342Z,98.84
2024-01-18T04:58:12.954Z,99.43
2024-01-18T05:03:15.137Z,99.25
2024-01-18T05:08:17.372Z,99.39
2024-01-18T05:13:19.621Z,100.00
2024-01-18T05:18:21.863Z,99.72
2024-01-18T05:23:24.259Z,99.40
2024-01-18T05:28:26.390Z,99.34
2024-01-18T05:33:28.727Z,99.81
2024-01-18T05:38:39.320Z,99.65
2024-01-18T05:43:43.937Z,99.70
2024-01-18T05:48:46.190Z,100.00
2024-01-18T05:53:48.379Z,99.85
2024-01-18T05:58:50.844Z,99.87
2024-01-18T06:03:53.093Z,99.72
2024-01-18T06:08:57.062Z,100.00
2024-01-18T06:13:59.389Z,100.00
2024-01-18T06:19:01.754Z,100.00
2024-01-18T06:24:04.333Z,100.00
2024-01-18T06:29:07.642Z,100.00
2024-01-18T06:34:11.372Z,100.00
2024-01-18T06:39:15.217Z,100.00
2024-01-18T06:44:17.354Z,100.00
2024-01-18T06:49:19.708Z,100.00
2024-01-18T06:54:23.346Z,100.00
2024-01-18T06:59:26.540Z,100.00
2024-01-18T07:04:28.824Z,100.00
2024-01-18T07:09:32.772Z,100.00
2024-01-18T07:14:35.221Z,100.00
2024-01-18T07:19:40.460Z,100.00
2024-01-18T07:24:42.989Z,100.00
2024-01-18T07:29:45.503Z,100.00
2024-01-18T07:34:47.741Z,100.00
2024-01-18T07:39:51.615Z,100.00
2024-01-18T07:44:53.811Z,100.00
2024-01-18T07:49:55.999Z,100.00
2024-01-18T07:54:58.369Z,100.00
2024-01-18T08:00:00.747Z,100.00
2024-01-18T08:05:03.078Z,100.00
2024-01-18T08:10:07.388Z,100.00
2024-01-18T08:15:10.245Z,100.00
2024-01-18T08:20:16.177Z,100.00
2024-01-18T08:25:18.492Z,100.00
2024-01-18T08:30:21.301Z,100.00
2024-01-18T08:35:23.489Z,100.00
2024-01-18T08:40:25.729Z,100.00
2024-01-18T08:45:28.381Z,100.00
2024-01-18T08:50:30.573Z,100.00
2024-01-18T08:55:32.894Z,100.00
2024-01-18T09:00:35.653Z,100.00
2024-01-18T09:05:37.956Z,100.00
2024-01-18T09:10:40.128Z,100.00
2024-01-18T09:15:42.856Z,100.00
2024-01-18T09:20:47.968Z,100.00
2024-01-18T09:25:50.276Z,100.00
2024-01-18T09:30:52.493Z,99.56
2024-01-18T09:35:55.228Z,99.10
2024-01-18T09:41:07.691Z,97.86
2024-01-18T09:46:12.967Z,97.55
2024-01-18T09:51:16.283Z,97.03
2024-01-18T09:56:29.615Z,97.28
2024-01-18T10:01:33.069Z,98.40
2024-01-18T10:06:36.968Z,96.33
2024-01-18T10:11:40.096Z,96.28
2024-01-18T10:16:43.449Z,98.03
2024-01-18T10:21:47.870Z,96.40
2024-01-18T10:27:03.386Z,98.76
2024-01-18T10:32:08.213Z,96.29
2024-01-18T10:37:16.749Z,95.74
2024-01-18T10:42:19.467Z,97.41
2024-01-18T10:47:24.229Z,96.16
2024-01-18T10:52:27.179Z,94.34
2024-01-18T10:57:29.439Z,93.81
2024-01-18T11:02:32.416Z,94.26
2024-01-18T11:07:34.920Z,93.56
2024-01-18T11:12:51.046Z,93.30
2024-01-18T11:17:53.517Z,92.81
2024-01-18T11:22:59.915Z,93.13
2024-01-18T11:28:02.762Z,92.70
2024-01-18T11:33:08.540Z,91.74
2024-01-18T11:38:27.341Z,91.07
2024-01-18T11:44:02.632Z,90.73
2024-01-18T11:49:05.429Z,89.91
2024-01-18T11:54:10.100Z,89.31
2024-01-18T11:59:12.356Z,88.20
2024-01-18T12:04:14.549Z,87.12
2024-01-18T12:09:16.955Z,87.18
2024-01-18T12:14:19.170Z,87.42
2024-01-18T12:19:35.232Z,86.89
2024-01-18T12:24:38.546Z,87.37
2024-01-18T12:29:41.822Z,86.65
2024-01-18T12:34:44.203Z,86.49
2024-01-18T12:39:46.737Z,86.01
2024-01-18T12:44:53.683Z,86.02
2024-01-18T12:49:56.512Z,85.89
2024-01-18T12:55:00.800Z,85.75
2024-01-18T13:00:06.813Z,86.14
2024-01-18T13:05:15.360Z,85.52
2024-01-18T13:10:17.671Z,85.40
2024-01-18T13:15:19.902Z,84.23
2024-01-18T13:20:25.185Z,81.32
2024-01-18T13:25:27.330Z,80.23
2024-01-18T13:30:29.564Z,78.52
2024-01-18T13:35:31.798Z,78.52
2024-01-18T13:40:33.969Z,79.05
2024-01-18T13:45:36.200Z,79.72
2024-01-18T13:50:38.477Z,80.03
2024-01-18T13:55:40.856Z,80.52
2024-01-18T14:00:44.695Z,80.15
2024-01-18T14:05:48.559Z,77.06
2024-01-18T14:10:50.895Z,76.10
2024-01-18T14:15:53.233Z,74.54
2024-01-18T14:20:56.205Z,77.14
2024-01-18T14:25:58.790Z,79.56
2024-01-18T14:31:02.358Z,81.05
2024-01-18T14:36:05.634Z,82.24
2024-01-18T14:41:07.778Z,83.46
2024-01-18T14:46:09.935Z,84.33
2024-01-18T14:51:12.259Z,84.71
2024-01-18T14:56:14.427Z,88.55
2024-01-18T15:01:17.624Z,89.84
2024-01-18T15:06:20.000Z,89.39
2024-01-18T15:11:22.196Z,90.47
2024-01-18T15:16:24.498Z,87.91
2024-01-18T15:21:27.102Z,87.89
2024-01-18T15:26:29.207Z,88.13
2024-01-18T15:31:32.847Z,88.13
2024-01-18T15:36:39.778Z,88.98
2024-01-18T15:41:46.106Z,88.82
2024-01-18T15:46:55.841Z,88.92
2024-01-18T15:51:58.323Z,89.35
2024-01-18T15:57:00.582Z,89.68
2024-01-18T16:02:04.083Z,88.46
2024-01-18T16:07:06.538Z,88.80
2024-01-18T16:12:09.813Z,89.17
2024-01-18T16:17:12.097Z,89.25
2024-01-18T16:22:14.283Z,89.50
2024-01-18T16:27:16.715Z,89.74
2024-01-18T16:32:19.990Z,89.92
2024-01-18T16:37:22.327Z,91.12
2024-01-18T16:42:24.495Z,92.45
2024-01-18T16:47:26.717Z,94.54
2024-01-18T16:52:29.000Z,93.90
2024-01-18T16:57:33.413Z,92.00
2024-01-18T17:02:39.290Z,93.62
2024-01-18T17:07:41.528Z,93.49
2024-01-18T17:12:43.683Z,92.39
2024-01-18T17:17:45.967Z,91.70
2024-01-18T17:22:48.228Z,91.40
2024-01-18T17:27:50.375Z,91.87
2024-01-18T17:32:55.234Z,92.41
2024-01-18T17:37:57.531Z,92.21
2024-01-18T17:42:59.764Z,92.77
2024-01-18T17:48:03.436Z,92.92
2024-01-18T17:53:06.215Z,93.11
2024-01-18T17:58:08.543Z,94.10
2024-01-18T18:03:12.011Z,94.54
2024-01-18T18:08:14.288Z,96.82
2024-01-18T18:13:16.575Z,96.65
2024-01-18T18:18:20.363Z,96.86
2024-01-18T18:23:22.945Z,96.64
2024-01-18T18:28:25.140Z,96.73
2024-01-18T18:33:27.656Z,97.17
2024-01-18T18:38:33.203Z,96.74
2024-01-18T18:43:42.232Z,96.21
2024-01-18T18:48:44.402Z,95.70
2024-01-18T18:53:46.674Z,95.14
2024-01-18T18:58:48.930Z,95.40
2024-01-18T19:03:51.128Z,94.93
2024-01-18T19:08:53.383Z,94.43
2024-01-18T19:13:56.895Z,94.60
2024-01-18T19:18:59.580Z,94.84
2024-01-18T19:24:01.793Z,94.74
2024-01-18T19:29:04.736Z,94.88
2024-01-18T19:34:07.032Z,94.45
2024-01-18T19:39:09.983Z,94.73
2024-01-18T19:44:12.369Z,94.57
2024-01-18T19:49:14.528Z,94.48
2024-01-18T19:54:16.689Z,94.53
2024-01-18T19:59:19.698Z,94.25
2024-01-18T20:04:21.914Z,95.48
2024-01-18T20:09:24.093Z,94.42
2024-01-18T20:14:26.827Z,97.19
2024-01-18T20:19:29.056Z,97.12
2024-01-18T20:24:34.983Z,95.36
2024-01-18T20:29:38.242Z,97.15
2024-01-18T20:34:40.755Z,96.06
2024-01-18T20:39:43.991Z,93.10
2024-01-18T20:44:46.249Z,97.14
2024-01-18T20:49:48.413Z,97.44
2024-01-18T20:54:51.114Z,97.51
2024-01-18T20:59:53.376Z,97.05
2024-01-18T21:04:55.684Z,96.84
2024-01-18T21:09:57.942Z,96.61
2024-01-18T21:15:00.077Z,96.72
2024-01-18T21:20:02.869Z,96.79
2024-01-18T21:25:05.251Z,97.01
2024-01-18T21:30:08.223Z,96.76
2024-01-18T21:35:10.626Z,96.43
2024-01-18T21:40:13.001Z,96.31
2024-01-18T21:45:15.728Z,96.15
2024-01-18T21:50:18.369Z,95.77
2024-01-18T21:55:20.713Z,95.81
2024-01-18T22:00:23.757Z,95.84
2024-01-18T22:05:26.836Z,95.18
2024-01-18T22:10:29.120Z,91.31
2024-01-18T22:15:31.278Z,95.31
2024-01-18T22:20:33.729Z,95.79
2024-01-18T22:25:35.971Z,95.75
2024-01-18T22:30:38.136Z,95.26
2024-01-18T22:35:40.462Z,95.26
2024-01-18T22:40:42.700Z,94.57
2024-01-18T22:45:47.447Z,94.64
2024-01-18T22:50:51.800Z,94.72
2024-01-18T22:55:54.003Z,95.12
2024-01-18T23:00:56.210Z,93.49
2024-01-18T23:05:58.523Z,95.11
2024-01-18T23:11:00.731Z,97.57
2024-01-18T23:16:03.977Z,98.60
2024-01-18T23:21:07.676Z,97.06
2024-01-18T23:26:09.966Z,96.00
2024-01-18T23:31:12.322Z,95.11
2024-01-18T23:36:14.455Z,95.44
2024-01-18T23:41:16.899Z,94.42
2024-01-18T23:46:19.038Z,94.59
2024-01-18T23:51:21.182Z,94.88
2024-01-18T23:56:23.382Z,94.92
